Lidy Hot Springs, Idaho
Current Conditions -  °F | °C
As of 12:53 AM on Wednesday 26 Nov 2014 (Local Time) from KRXE Reporting Station
Broken Clouds Broken Clouds  
Wind Chill: 30°   Ceiling: 8500
Heat Index: 39°   Visibility: 10mi
Dew Point: 36°   Wind: 16mph
Humidity: 89%   Direction: 210°SSW
Pressure: 30.12"   Gusts: NA
Location:  44.2396°N, 112.579°W
Report Text: KRXE 260753Z AUTO 21014KT 10SM BKN085 BKN120 04/02 A3012 RMK AO2 SLP209 T00390022
Loading
Personal Weather Stations






























Interactive Weather Map New forecast layout! Learn more

10-Day Weather Forecast

Advertisements
Track Severe Weather on mobile